createdAt,value
2019-04-14T00:02:22.882Z,14.35
2019-04-14T00:04:57.211Z,14.80
2019-04-14T00:07:29.864Z,13.18
2019-04-14T00:10:02.938Z,14.13
2019-04-14T00:12:35.834Z,15.63
2019-04-14T00:15:23.446Z,15.25
2019-04-14T00:17:45.575Z,11.40
2019-04-14T00:20:18.610Z,12.75
2019-04-14T00:22:53.407Z,10.75
2019-04-14T00:25:26.222Z,12.78
2019-04-14T00:27:58.632Z,10.38
2019-04-14T00:30:31.632Z,14.30
2019-04-14T00:33:06.271Z,12.85
2019-04-14T00:35:47.172Z,16.35
2019-04-14T00:38:26.067Z,12.15
2019-04-14T00:41:07.965Z,10.95
2019-04-14T00:43:50.600Z,9.45
2019-04-14T00:46:31.237Z,9.65
2019-04-14T00:49:02.823Z,11.68
2019-04-14T00:51:37.743Z,11.18
2019-04-14T00:54:08.941Z,12.90
2019-04-14T00:56:41.894Z,10.32
2019-04-14T00:59:13.893Z,10.45
2019-04-14T01:01:46.011Z,12.63
2019-04-14T01:04:18.713Z,12.15
2019-04-14T01:06:51.737Z,12.37
2019-04-14T01:09:24.044Z,14.68
2019-04-14T01:11:57.428Z,15.00
2019-04-14T01:14:29.866Z,15.48
2019-04-14T01:17:03.151Z,13.50
2019-04-14T01:19:35.308Z,13.22
2019-04-14T01:22:07.495Z,14.40
2019-04-14T01:24:40.383Z,14.33
2019-04-14T01:27:14.598Z,16.90
2019-04-14T01:29:47.369Z,12.55
2019-04-14T01:32:19.969Z,12.53
2019-04-14T01:34:54.472Z,12.98
2019-04-14T01:37:27.507Z,13.40
2019-04-14T01:40:03.194Z,13.38
2019-04-14T01:42:35.632Z,11.85
2019-04-14T01:45:10.057Z,12.25
2019-04-14T01:47:42.380Z,12.45
2019-04-14T01:50:14.925Z,13.30
2019-04-14T01:53:05.416Z,13.40
2019-04-14T01:55:52.672Z,11.60
2019-04-14T01:58:36.666Z,11.88
2019-04-14T02:01:31.046Z,11.45
2019-04-14T02:04:03.102Z,10.70
2019-04-14T02:06:35.625Z,11.18
2019-04-14T02:09:12.046Z,10.53
2019-04-14T02:11:44.567Z,11.73
2019-04-14T02:14:16.898Z,12.15
2019-04-14T02:16:54.108Z,13.38
2019-04-14T02:19:24.081Z,12.93
2019-04-14T02:21:56.449Z,11.85
2019-04-14T02:24:28.913Z,9.75
2019-04-14T02:29:45.174Z,11.55
2019-04-14T02:32:45.418Z,9.70
2019-04-14T02:35:22.274Z,10.95
2019-04-14T02:37:55.948Z,10.55
2019-04-14T02:40:34.792Z,8.58
2019-04-14T02:42:56.355Z,9.65
2019-04-14T02:45:46.780Z,9.38
2019-04-14T02:48:33.428Z,9.18
2019-04-14T02:50:49.557Z,10.40
2019-04-14T02:53:23.893Z,10.75
2019-04-14T02:56:08.238Z,8.85
2019-04-14T02:58:40.406Z,8.90
2019-04-14T03:01:07.001Z,9.30
2019-04-14T03:03:41.551Z,8.20
2019-04-14T03:06:12.194Z,7.45
2019-04-14T03:08:51.410Z,7.30
2019-04-14T03:11:25.791Z,7.33
2019-04-14T03:14:00.444Z,7.10
2019-04-14T03:17:05.649Z,8.38
2019-04-14T03:20:07.107Z,7.20
2019-04-14T03:22:45.891Z,8.40
2019-04-14T03:25:29.645Z,6.72
2019-04-14T03:34:17.624Z,7.03
2019-04-14T03:37:16.239Z,7.25
2019-04-14T03:39:00.523Z,7.08
2019-04-14T03:43:54.980Z,8.23
2019-04-14T03:46:53.087Z,8.78
2019-04-14T03:51:45.141Z,9.03
2019-04-14T03:54:07.954Z,8.85
2019-04-14T03:56:51.774Z,9.20
2019-04-14T03:59:28.065Z,8.78
2019-04-14T04:02:00.878Z,11.90
2019-04-14T04:04:33.799Z,9.70
2019-04-14T04:07:06.564Z,10.70
2019-04-14T04:09:43.684Z,8.75
2019-04-14T04:12:16.050Z,9.25
2019-04-14T04:14:48.586Z,9.73
2019-04-14T04:17:40.892Z,9.38
2019-04-14T04:20:37.776Z,9.83
2019-04-14T04:23:22.775Z,11.40
2019-04-14T04:26:10.451Z,9.90
2019-04-14T04:29:02.973Z,11.12
2019-04-14T04:32:06.031Z,11.50
2019-04-14T04:35:00.199Z,12.13
2019-04-14T04:37:45.501Z,10.75
2019-04-14T04:40:24.594Z,10.25
2019-04-14T04:42:57.105Z,10.95
2019-04-14T04:45:30.614Z,12.13
2019-04-14T04:48:04.455Z,11.43
2019-04-14T04:50:37.299Z,10.75
2019-04-14T04:53:11.526Z,11.95
2019-04-14T04:55:44.152Z,11.43
2019-04-14T04:58:17.275Z,10.32
2019-04-14T05:00:53.929Z,10.53
2019-04-14T05:03:25.398Z,11.97
2019-04-14T05:06:11.841Z,11.53
2019-04-14T05:08:50.316Z,12.07
2019-04-14T05:11:31.665Z,9.23
2019-04-14T05:14:11.614Z,9.83
2019-04-14T05:16:43.996Z,8.65
2019-04-14T05:19:23.757Z,8.98
2019-04-14T05:21:55.905Z,8.35
2019-04-14T05:24:29.074Z,10.70
2019-04-14T05:27:02.044Z,9.60
2019-04-14T05:29:34.462Z,8.78
2019-04-14T05:32:06.670Z,8.98
2019-04-14T05:34:39.011Z,9.93
2019-04-14T05:37:11.708Z,9.58
2019-04-14T05:39:44.093Z,7.40
2019-04-14T05:42:20.167Z,8.00
2019-04-14T05:44:49.976Z,8.98
2019-04-14T05:47:22.145Z,9.03
2019-04-14T05:49:56.190Z,8.95
2019-04-14T05:52:29.731Z,8.05
2019-04-14T05:55:02.527Z,9.18
2019-04-14T05:57:35.197Z,9.35
2019-04-14T06:00:12.471Z,11.10
2019-04-14T06:02:46.241Z,9.98
2019-04-14T06:05:18.980Z,10.60
2019-04-14T06:07:51.308Z,7.65
2019-04-14T06:10:23.446Z,9.65
2019-04-14T06:12:55.452Z,8.65
2019-04-14T06:15:27.438Z,10.82
2019-04-14T06:17:59.422Z,10.03
2019-04-14T06:20:31.604Z,9.90
2019-04-14T06:23:06.368Z,10.20
2019-04-14T06:25:38.315Z,12.23
2019-04-14T06:28:10.373Z,12.00
2019-04-14T06:31:02.077Z,9.85
2019-04-14T06:33:55.697Z,10.53
2019-04-14T06:36:46.674Z,10.93
2019-04-14T06:39:43.249Z,10.68
2019-04-14T06:42:15.334Z,11.08
2019-04-14T06:44:47.258Z,9.25
2019-04-14T06:47:19.305Z,9.78
2019-04-14T06:49:53.204Z,10.50
2019-04-14T06:52:25.259Z,10.93
2019-04-14T06:54:57.293Z,10.58
2019-04-14T06:57:29.794Z,9.98
2019-04-14T07:00:01.908Z,8.53
2019-04-14T07:02:35.615Z,7.53
2019-04-14T07:05:07.807Z,9.03
2019-04-14T07:07:40.253Z,8.48
2019-04-14T07:10:12.248Z,8.63
2019-04-14T07:12:44.256Z,10.20
2019-04-14T07:15:16.207Z,11.25
2019-04-14T07:17:48.194Z,9.60
2019-04-14T07:20:20.141Z,9.35
2019-04-14T07:22:53.628Z,9.98
2019-04-14T07:25:25.944Z,9.30
2019-04-14T07:27:57.918Z,10.65
2019-04-14T07:30:48.809Z,9.70
2019-04-14T07:33:39.251Z,12.58
2019-04-14T07:36:39.613Z,11.33
2019-04-14T07:39:29.011Z,9.35
2019-04-14T07:42:15.763Z,9.85
2019-04-14T07:45:06.565Z,9.58
2019-04-14T07:48:00.493Z,7.78
2019-04-14T07:50:55.956Z,8.75
2019-04-14T07:53:55.634Z,7.40
2019-04-14T07:56:58.860Z,8.68
2019-04-14T07:59:36.944Z,7.60
2019-04-14T08:02:15.301Z,7.55
2019-04-14T08:05:04.377Z,5.95
2019-04-14T08:07:36.492Z,6.30
2019-04-14T08:10:09.204Z,7.83
2019-04-14T08:12:41.389Z,8.05
2019-04-14T08:15:13.866Z,6.87
2019-04-14T08:17:46.062Z,4.90
2019-04-14T08:20:27.315Z,8.55
2019-04-14T08:22:51.808Z,6.37
2019-04-14T08:25:23.819Z,7.40
2019-04-14T08:27:57.852Z,6.72
2019-04-14T08:30:30.144Z,5.67
2019-04-14T08:33:02.981Z,5.55
2019-04-14T08:35:36.247Z,5.03
2019-04-14T08:38:08.620Z,6.62
2019-04-14T08:40:42.323Z,5.62
2019-04-14T08:43:30.683Z,7.28
2019-04-14T08:46:21.314Z,5.65
2019-04-14T08:48:57.614Z,6.33
2019-04-14T08:51:47.166Z,5.80
2019-04-14T08:54:56.363Z,7.25
2019-04-14T08:57:52.284Z,5.50
2019-04-14T09:00:33.805Z,5.03
2019-04-14T09:03:23.880Z,5.25
2019-04-14T09:06:10.530Z,6.03
2019-04-14T09:08:53.435Z,6.03
2019-04-14T09:11:36.731Z,6.17
2019-04-14T09:14:11.603Z,7.65
2019-04-14T09:16:45.025Z,6.17
2019-04-14T09:19:19.331Z,7.05
2019-04-14T09:21:51.343Z,8.63
2019-04-14T09:24:25.110Z,8.38
2019-04-14T09:26:57.173Z,4.87
2019-04-14T09:29:34.480Z,8.25
2019-04-14T09:32:08.471Z,4.45
2019-04-14T09:34:40.575Z,8.75
2019-04-14T09:37:12.532Z,8.48
2019-04-14T09:39:45.078Z,7.60
2019-04-14T09:42:17.488Z,11.03
2019-04-14T09:44:50.991Z,7.45
2019-04-14T09:47:22.997Z,9.03
2019-04-14T09:49:55.138Z,9.98
2019-04-14T09:52:27.476Z,8.30
2019-04-14T09:54:59.480Z,7.15
2019-04-14T09:57:31.538Z,8.90
2019-04-14T10:00:04.883Z,8.75
2019-04-14T10:02:37.086Z,6.97
2019-04-14T10:05:09.499Z,7.78
2019-04-14T10:07:41.598Z,9.13
2019-04-14T10:10:13.857Z,8.55
2019-04-14T10:12:46.325Z,7.55
2019-04-14T10:15:18.358Z,10.03
2019-04-14T10:17:50.328Z,9.33
2019-04-14T10:20:22.343Z,9.23
2019-04-14T10:22:54.504Z,8.58
2019-04-14T10:25:26.603Z,10.38
2019-04-14T10:27:59.053Z,10.95
2019-04-14T10:30:33.527Z,9.73
2019-04-14T10:33:05.581Z,6.17
2019-04-14T10:35:37.677Z,12.73
2019-04-14T10:38:10.223Z,7.00
2019-04-14T10:40:43.420Z,5.53
2019-04-14T10:43:15.543Z,4.20
2019-04-14T10:45:50.415Z,6.25
2019-04-14T10:48:22.511Z,6.97
2019-04-14T10:50:54.510Z,5.05
2019-04-14T10:53:27.329Z,5.00
2019-04-14T10:55:59.396Z,6.58
2019-04-14T10:58:38.030Z,5.37
2019-04-14T11:01:19.397Z,4.80
2019-04-14T11:03:59.698Z,8.98
2019-04-14T11:06:45.323Z,3.33
2019-04-14T11:09:19.211Z,3.95
2019-04-14T11:11:51.203Z,3.77
2019-04-14T11:14:23.984Z,5.15
2019-04-14T11:16:56.076Z,6.53
2019-04-14T11:19:28.029Z,5.00
2019-04-14T11:22:02.750Z,11.90
2019-04-14T11:24:36.334Z,4.50
2019-04-14T11:27:08.302Z,7.12
2019-04-14T11:29:40.257Z,5.15
2019-04-14T11:32:49.222Z,4.15
2019-04-14T11:35:28.751Z,4.75
2019-04-14T11:38:31.736Z,4.03
2019-04-14T11:41:06.999Z,5.20
2019-04-14T11:43:39.092Z,4.45
2019-04-14T11:46:11.044Z,3.45
2019-04-14T11:48:44.818Z,3.87
2019-04-14T11:51:18.248Z,4.35
2019-04-14T11:53:50.099Z,5.67
2019-04-14T11:56:22.038Z,3.15
2019-04-14T11:58:53.890Z,5.17
2019-04-14T12:01:43.922Z,5.50
2019-04-14T12:04:27.967Z,17.77
2019-04-14T12:20:09.311Z,5.42
2019-04-14T12:22:41.214Z,5.08
2019-04-14T12:25:13.130Z,6.10
2019-04-14T12:27:46.538Z,4.65
2019-04-14T12:30:20.083Z,2.92
2019-04-14T12:32:52.329Z,3.55
2019-04-14T12:35:24.297Z,3.30
2019-04-14T12:37:56.823Z,4.65
2019-04-14T12:40:28.906Z,5.25
2019-04-14T12:43:23.227Z,6.40
2019-04-14T12:46:14.800Z,4.70
2019-04-14T12:48:52.118Z,7.83
2019-04-14T12:51:57.876Z,5.92
2019-04-14T12:54:29.828Z,6.20
2019-04-14T12:57:01.718Z,7.15
2019-04-14T12:59:35.857Z,5.60
2019-04-14T13:02:32.767Z,7.47
2019-04-14T13:05:06.424Z,7.53
2019-04-14T13:07:38.324Z,6.50
2019-04-14T13:10:10.645Z,4.15
2019-04-14T13:12:42.563Z,5.58
2019-04-14T13:15:14.722Z,3.45
2019-04-14T13:17:47.103Z,4.37
2019-04-14T13:20:20.661Z,3.45
2019-04-14T13:22:53.450Z,3.33
2019-04-14T13:25:25.923Z,6.20
2019-04-14T13:27:59.282Z,7.17
2019-04-14T13:30:36.008Z,4.15
2019-04-14T13:33:09.287Z,6.75
2019-04-14T13:35:53.362Z,3.60
2019-04-14T13:38:31.551Z,4.83
2019-04-14T13:41:11.913Z,4.40
2019-04-14T13:43:54.946Z,4.10
2019-04-14T13:46:37.475Z,2.85
2019-04-14T13:49:17.444Z,4.85
2019-04-14T13:51:52.046Z,4.42
2019-04-14T13:54:26.540Z,4.10
2019-04-14T13:57:09.698Z,4.45
2019-04-14T13:59:39.185Z,6.28
2019-04-14T14:02:14.289Z,5.55
2019-04-14T14:04:46.239Z,3.55
2019-04-14T14:07:18.563Z,3.65
2019-04-14T14:09:50.529Z,4.53
2019-04-14T14:12:27.843Z,3.15
2019-04-14T14:15:12.013Z,7.17
2019-04-14T14:17:48.648Z,6.67
2019-04-14T14:20:43.631Z,5.50
2019-04-14T14:23:27.823Z,3.65
2019-04-14T14:26:04.106Z,5.87
2019-04-14T14:28:38.543Z,5.95
2019-04-14T14:31:14.043Z,3.98
2019-04-14T14:33:46.044Z,5.62
2019-04-14T14:36:18.028Z,6.10
2019-04-14T14:38:52.761Z,3.45
2019-04-14T14:41:24.748Z,5.22
2019-04-14T14:43:58.321Z,4.40
2019-04-14T14:46:43.646Z,4.85
2019-04-14T14:49:37.441Z,3.95
2019-04-14T14:52:11.552Z,4.40
2019-04-14T14:54:44.700Z,4.28
2019-04-14T14:57:17.161Z,8.83
2019-04-14T14:59:49.671Z,5.55
2019-04-14T15:02:22.659Z,5.08
2019-04-14T15:04:55.900Z,5.58
2019-04-14T15:07:28.187Z,6.53
2019-04-14T15:10:01.603Z,4.22
2019-04-14T15:12:37.099Z,5.75
2019-04-14T15:15:10.742Z,5.30
2019-04-14T15:17:43.218Z,5.55
2019-04-14T15:20:15.492Z,8.03
2019-04-14T15:22:48.752Z,7.25
2019-04-14T15:25:20.926Z,5.62
2019-04-14T15:27:53.455Z,5.17
2019-04-14T15:30:26.125Z,4.47
2019-04-14T15:33:00.026Z,4.92
2019-04-14T15:35:32.252Z,5.05
2019-04-14T15:38:04.904Z,5.33
2019-04-14T15:40:37.118Z,5.67
2019-04-14T15:43:10.308Z,5.75
2019-04-14T15:45:42.762Z,5.37
2019-04-14T15:48:15.450Z,3.72
2019-04-14T15:50:48.313Z,5.03
2019-04-14T15:53:21.642Z,3.72
2019-04-14T15:55:53.679Z,4.62
2019-04-14T15:58:41.093Z,6.65
2019-04-14T16:01:35.482Z,7.80
2019-04-14T16:04:38.284Z,8.00
2019-04-14T16:07:34.427Z,6.60
2019-04-14T16:10:19.574Z,4.92
2019-04-14T16:13:15.316Z,6.97
2019-04-14T16:16:10.052Z,4.92
2019-04-14T16:19:15.104Z,4.08
2019-04-14T16:21:49.666Z,6.83
2019-04-14T16:24:22.054Z,8.73
2019-04-14T16:27:18.486Z,6.53
2019-04-14T16:30:18.991Z,5.83
2019-04-14T16:33:13.592Z,4.03
2019-04-14T16:35:46.628Z,6.33
2019-04-14T16:38:18.989Z,5.37
2019-04-14T16:40:51.139Z,4.55
2019-04-14T16:43:26.086Z,4.30
2019-04-14T16:49:03.004Z,5.28
2019-04-14T16:51:53.611Z,4.83
2019-04-14T16:54:45.754Z,5.62
2019-04-14T16:57:45.563Z,6.50
2019-04-14T17:00:25.633Z,5.12
2019-04-14T17:02:58.199Z,6.75
2019-04-14T17:05:30.820Z,6.15
2019-04-14T17:08:03.088Z,4.60
2019-04-14T17:10:35.613Z,4.45
2019-04-14T17:13:10.991Z,3.77
2019-04-14T17:16:02.049Z,6.83
2019-04-14T17:18:52.065Z,3.58
2019-04-14T17:21:35.377Z,6.40
2019-04-14T17:24:25.145Z,8.18
2019-04-14T17:27:05.965Z,5.45
2019-04-14T17:29:51.157Z,3.80
2019-04-14T17:32:37.022Z,4.22
2019-04-14T17:39:06.540Z,6.03
2019-04-14T17:41:46.318Z,5.92
2019-04-14T17:44:52.403Z,4.75
2019-04-14T17:47:47.185Z,5.80
2019-04-14T17:50:40.488Z,7.65
2019-04-14T17:53:17.540Z,6.55
2019-04-14T17:55:57.729Z,7.60
2019-04-14T17:58:57.800Z,6.03
2019-04-14T18:01:40.967Z,7.95
2019-04-14T18:04:34.291Z,7.75
2019-04-14T18:07:24.295Z,8.40
2019-04-14T18:10:03.057Z,6.72
2019-04-14T18:12:39.772Z,9.38
2019-04-14T18:15:27.942Z,10.38
2019-04-14T18:18:25.318Z,7.47
2019-04-14T18:21:02.865Z,8.00
2019-04-14T18:23:35.005Z,7.05
2019-04-14T18:26:09.588Z,7.17
2019-04-14T18:28:51.029Z,11.38
2019-04-14T18:31:35.452Z,10.18
2019-04-14T18:34:29.580Z,9.68
2019-04-14T18:37:24.136Z,9.75
2019-04-14T18:40:07.522Z,11.68
2019-04-14T18:42:53.145Z,11.55
2019-04-14T18:45:35.170Z,13.48
2019-04-14T18:48:26.464Z,10.43
2019-04-14T18:51:31.301Z,11.63
2019-04-14T18:54:29.556Z,10.43
2019-04-14T18:57:09.757Z,11.70
2019-04-14T19:00:11.324Z,13.85
2019-04-14T19:02:46.272Z,17.82
2019-04-14T19:05:20.986Z,14.47
2019-04-14T19:07:54.957Z,13.00
2019-04-14T19:10:32.124Z,15.35
2019-04-14T19:13:10.818Z,14.00
2019-04-14T19:15:49.511Z,14.55
2019-04-14T19:18:37.070Z,16.48
2019-04-14T19:21:16.398Z,14.83
2019-04-14T19:23:51.289Z,16.48
2019-04-14T19:26:27.091Z,14.55
2019-04-14T19:29:00.311Z,15.90
2019-04-14T19:31:37.567Z,14.28
2019-04-14T19:34:14.758Z,15.28
2019-04-14T19:36:47.620Z,12.78
2019-04-14T19:39:21.768Z,14.10
2019-04-14T19:41:54.986Z,14.43
2019-04-14T19:44:29.472Z,15.88
2019-04-14T19:47:05.936Z,18.07
2019-04-14T19:49:41.729Z,16.82
2019-04-14T19:52:14.637Z,20.45
2019-04-14T19:54:47.690Z,16.00
2019-04-14T19:57:22.199Z,13.70
2019-04-14T20:00:02.056Z,15.60
2019-04-14T20:02:36.570Z,16.37
2019-04-14T20:05:14.374Z,17.27
2019-04-14T20:07:48.371Z,17.57
2019-04-14T20:10:27.807Z,14.58
2019-04-14T20:13:02.255Z,15.58
2019-04-14T20:15:47.337Z,14.95
2019-04-14T20:18:33.558Z,18.48
2019-04-14T20:21:42.643Z,14.35
2019-04-14T20:24:23.130Z,12.68
2019-04-14T20:27:21.573Z,17.02
2019-04-14T20:29:58.132Z,19.15
2019-04-14T20:32:34.241Z,15.90
2019-04-14T20:35:13.286Z,17.00
2019-04-14T20:37:48.468Z,15.72
2019-04-14T20:40:21.139Z,15.63
2019-04-14T20:42:56.471Z,15.78
2019-04-14T20:45:28.890Z,13.10
2019-04-14T20:48:01.135Z,15.23
2019-04-14T20:50:35.649Z,16.73
2019-04-14T20:53:10.386Z,15.40
2019-04-14T20:55:47.207Z,15.28
2019-04-14T20:58:18.474Z,16.70
2019-04-14T21:00:50.677Z,13.20
2019-04-14T21:03:48.061Z,18.35
2019-04-14T21:06:37.589Z,14.63
2019-04-14T21:09:22.422Z,11.48
2019-04-14T21:12:16.548Z,19.40
2019-04-14T21:15:16.297Z,14.68
2019-04-14T21:18:13.794Z,13.43
2019-04-14T21:21:03.769Z,14.25
2019-04-14T21:23:50.970Z,11.22
2019-04-14T21:26:31.284Z,12.18
2019-04-14T21:29:33.864Z,15.93
2019-04-14T21:32:16.902Z,12.82
2019-04-14T21:35:09.578Z,12.75
2019-04-14T21:38:03.923Z,12.20
2019-04-14T21:40:55.171Z,11.88
2019-04-14T21:43:34.008Z,13.08
2019-04-14T21:46:07.249Z,12.75
2019-04-14T21:48:39.558Z,14.00
2019-04-14T21:51:12.336Z,13.55
2019-04-14T21:53:45.644Z,12.68
2019-04-14T21:56:30.938Z,14.40
2019-04-14T21:59:14.996Z,13.25
2019-04-14T22:02:22.250Z,11.60
2019-04-14T22:05:16.244Z,10.63
2019-04-14T22:08:04.842Z,10.65
2019-04-14T22:10:46.782Z,12.50
2019-04-14T22:13:21.308Z,12.23
2019-04-14T22:15:57.016Z,16.12
2019-04-14T22:18:29.364Z,14.75
2019-04-14T22:21:02.979Z,11.33
2019-04-14T22:23:36.803Z,11.93
2019-04-14T22:26:09.586Z,15.58
2019-04-14T22:28:42.235Z,11.68
2019-04-14T22:31:16.813Z,11.45
2019-04-14T22:33:59.149Z,11.18
2019-04-14T22:36:28.569Z,10.32
2019-04-14T22:39:06.556Z,7.80
2019-04-14T22:41:41.743Z,10.18
2019-04-14T22:44:13.974Z,13.00
2019-04-14T22:46:54.012Z,8.23
2019-04-14T22:49:26.916Z,8.73
2019-04-14T22:52:00.705Z,11.43
2019-04-14T22:54:33.360Z,11.22
2019-04-14T22:57:07.519Z,12.07
2019-04-14T22:59:49.677Z,13.28
2019-04-14T23:02:52.138Z,9.83
2019-04-14T23:05:59.258Z,7.97
2019-04-14T23:08:56.596Z,10.85
2019-04-14T23:11:57.741Z,7.60
2019-04-14T23:14:52.407Z,10.43
2019-04-14T23:17:36.278Z,11.88
2019-04-14T23:20:46.528Z,10.32
2019-04-14T23:23:50.042Z,8.98
2019-04-14T23:26:32.250Z,8.00
2019-04-14T23:29:13.512Z,7.97
2019-04-14T23:31:46.962Z,10.82
2019-04-14T23:34:21.829Z,12.40
2019-04-14T23:37:00.275Z,8.88
2019-04-14T23:39:40.891Z,8.80
2019-04-14T23:42:16.191Z,8.60
2019-04-14T23:44:49.818Z,6.90
2019-04-14T23:47:27.694Z,8.30
2019-04-14T23:50:04.947Z,8.40
2019-04-14T23:52:37.445Z,11.35
2019-04-14T23:55:20.819Z,9.23
2019-04-14T23:57:49.123Z,9.18
